Terminal Aerodrome Forecast
Issued by NWS

Home | Current Version | Previous Version | Text Only | Print | Product List | Glossary On
Versions: 1 2 3 4 5 6 7 8 9 10 11 12 13 14 15 16 17 18 19
000
FTUS46 KMTR 211729
TAFSTS
TAF
KSTS 211729Z 2118/2218 VRB03KT P6SM SCT200
     FM212100 20005KT P6SM OVC100
     FM220100 17005KT 4SM -RA BR BKN015 OVC030
      TEMPO 2206/2208 2SM RA BR OVC010
     FM220800 17003KT 1SM -RA BR BKN007 OVC012
     FM221200 00000KT 1/2SM FG OVC007
      TEMPO 2212/2216 1SM -RA BR OVC010=

USA.gov is the U.S. government's official web portal to all federal, state and local government web resources and services.